Time;durP1;ratioP1;P1;durP2;ratioP2;P2;SDS_P1;SDS_P2;PMS_P1;PMS_P2;Temp;Humidity;BMP_temperature;BMP_pressure;BME280_temperature;BME280_humidity;BME280_pressure;Samples;Min_cycle;Max_cycle;Signal;HPM_P1;HPM_P2
2022/08/30 00:01:08;;;;;;;57.60;9.07;;;;;;;;;;4990212;28;20093;-48
2022/08/30 00:03:44;;;;;;;72.15;11.38;;;;;;;;;;4989724;28;20131;-49
2022/08/30 00:06:12;;;;;;;55.83;10.90;;;;;;;;;;4994381;28;20369;-45
2022/08/30 00:08:40;;;;;;;57.35;10.25;;;;;;;;;;4998160;28;20536;-44
2022/08/30 00:11:08;;;;;;;58.83;12.07;;;;;;;;;;4993061;28;20026;-49
2022/08/30 00:13:39;;;;;;;68.75;12.38;;;;;;;;;;4992569;28;20089;-49
2022/08/30 00:16:06;;;;;;;74.32;12.95;;;;;;;;;;4993115;28;20034;-48
2022/08/30 00:18:34;;;;;;;55.42;11.50;;;;;;;;;;4974590;28;20794;-47
2022/08/30 00:21:01;;;;;;;55.88;11.68;;;;;;;;;;4985533;28;20588;-45
2022/08/30 00:23:28;;;;;;;57.30;11.18;;;;;;;;;;4979761;28;20101;-50
2022/08/30 00:25:55;;;;;;;57.60;11.48;;;;;;;;;;5003100;28;20450;-47
2022/08/30 00:28:22;;;;;;;52.35;10.75;;;;;;;;;;4981714;28;20030;-46
2022/08/30 00:30:49;;;;;;;57.78;10.57;;;;;;;;;;4982666;28;20022;-45
2022/08/30 00:33:16;;;;;;;59.45;11.32;;;;;;;;;;4997947;28;20034;-47
2022/08/30 00:35:44;;;;;;;50.30;10.68;;;;;;;;;;5001860;28;20702;-45
2022/08/30 00:38:12;;;;;;;62.17;11.95;;;;;;;;;;5008105;28;20041;-46
2022/08/30 00:40:40;;;;;;;63.67;11.82;;;;;;;;;;5003818;28;20400;-49
2022/08/30 00:43:09;;;;;;;67.85;11.25;;;;;;;;;;5006673;28;20022;-52
2022/08/30 00:45:37;;;;;;;62.17;10.00;;;;;;;;;;5010336;28;20064;-50
2022/08/30 00:48:04;;;;;;;55.47;10.40;;;;;;;;;;5006789;28;20522;-50
2022/08/30 00:50:34;;;;;;;55.13;9.18;;;;;;;;;;5012628;28;20032;-49
2022/08/30 00:53:02;;;;;;;57.15;10.25;;;;;;;;;;5005878;28;20510;-48
2022/08/30 00:55:29;;;;;;;67.18;10.20;;;;;;;;;;5004726;28;20058;-46
2022/08/30 00:57:58;;;;;;;54.65;9.55;;;;;;;;;;5009722;28;20048;-49
2022/08/30 01:00:25;;;;;;;55.53;9.27;;;;;;;;;;5007383;28;20030;-47
2022/08/30 01:02:52;;;;;;;52.75;8.32;;;;;;;;;;5006914;28;20041;-46
2022/08/30 01:05:20;;;;;;;47.88;8.32;;;;;;;;;;5012495;28;20018;-50
2022/08/30 01:07:47;;;;;;;42.30;7.82;;;;;;;;;;5009879;28;20054;-47
2022/08/30 01:10:15;;;;;;;45.25;8.52;;;;;;;;;;5012439;28;20499;-48
2022/08/30 01:12:42;;;;;;;56.55;9.65;;;;;;;;;;5012213;28;20038;-50
2022/08/30 01:15:10;;;;;;;57.53;8.35;;;;;;;;;;5004173;28;20022;-45
2022/08/30 01:17:40;;;;;;;53.30;7.53;;;;;;;;;;5006853;28;20473;-47
2022/08/30 01:20:12;;;;;;;53.88;7.55;;;;;;;;;;4996890;28;20081;-45
2022/08/30 01:22:51;;;;;;;52.92;8.10;;;;;;;;;;5008344;28;20049;-47
2022/08/30 01:25:21;;;;;;;46.10;7.45;;;;;;;;;;4999267;28;20026;-50
2022/08/30 01:27:52;;;;;;;44.00;7.43;;;;;;;;;;5000288;28;20018;-47
2022/08/30 01:30:19;;;;;;;41.75;7.53;;;;;;;;;;5003207;28;20559;-47
2022/08/30 01:32:47;;;;;;;41.53;7.20;;;;;;;;;;5001538;28;20109;-52
2022/08/30 01:35:15;;;;;;;36.80;6.93;;;;;;;;;;5006684;28;20053;-52
2022/08/30 01:37:43;;;;;;;34.85;6.97;;;;;;;;;;5005903;28;20058;-46
2022/08/30 01:40:11;;;;;;;28.85;6.13;;;;;;;;;;5007409;28;20061;-47
2022/08/30 01:42:38;;;;;;;36.65;6.18;;;;;;;;;;5006051;28;20041;-50
2022/08/30 01:45:06;;;;;;;34.53;5.90;;;;;;;;;;5008071;28;20052;-48
2022/08/30 01:47:33;;;;;;;34.35;5.55;;;;;;;;;;5004217;28;20087;-48
2022/08/30 01:50:00;;;;;;;34.30;5.50;;;;;;;;;;5007085;28;20022;-50
2022/08/30 01:52:28;;;;;;;41.60;6.20;;;;;;;;;;5001334;28;20035;-46
2022/08/30 01:54:55;;;;;;;40.05;5.65;;;;;;;;;;5003724;28;20038;-51
2022/08/30 01:57:25;;;;;;;32.25;5.53;;;;;;;;;;5006545;28;20540;-53
2022/08/30 01:59:53;;;;;;;33.10;5.45;;;;;;;;;;5003246;28;20037;-51
2022/08/30 02:02:22;;;;;;;35.08;5.10;;;;;;;;;;4998572;28;20061;-47
2022/08/30 02:04:50;;;;;;;30.75;4.97;;;;;;;;;;5003985;28;20050;-49
2022/08/30 02:07:17;;;;;;;36.15;5.20;;;;;;;;;;5005976;28;20037;-51
2022/08/30 02:09:44;;;;;;;32.65;4.75;;;;;;;;;;5007163;28;20030;-55
2022/08/30 02:12:11;;;;;;;29.48;4.65;;;;;;;;;;5007996;28;20468;-55
2022/08/30 02:14:38;;;;;;;29.42;4.55;;;;;;;;;;5005902;28;20018;-49
2022/08/30 02:17:06;;;;;;;33.00;4.55;;;;;;;;;;5002420;28;20033;-51
2022/08/30 02:19:33;;;;;;;23.50;4.25;;;;;;;;;;5007774;28;20026;-51
2022/08/30 02:22:00;;;;;;;26.90;4.70;;;;;;;;;;5008230;28;20037;-55
2022/08/30 02:24:28;;;;;;;38.15;4.82;;;;;;;;;;5007647;28;20037;-48
2022/08/30 02:26:55;;;;;;;35.75;5.05;;;;;;;;;;5009232;28;20066;-47
2022/08/30 02:29:22;;;;;;;34.80;5.10;;;;;;;;;;5008904;28;20026;-51
2022/08/30 02:31:49;;;;;;;34.65;5.03;;;;;;;;;;5012049;28;20045;-48
2022/08/30 02:34:16;;;;;;;33.17;5.35;;;;;;;;;;5012064;28;20022;-46
2022/08/30 02:36:43;;;;;;;21.83;4.10;;;;;;;;;;5013304;28;20147;-48
2022/08/30 02:39:11;;;;;;;23.90;4.70;;;;;;;;;;5005618;28;20097;-51
2022/08/30 02:41:39;;;;;;;23.27;4.47;;;;;;;;;;5011121;28;20057;-52
2022/08/30 02:44:06;;;;;;;29.98;4.32;;;;;;;;;;4991391;28;20049;-54
2022/08/30 02:46:33;;;;;;;24.67;4.88;;;;;;;;;;5009767;28;20030;-53
2022/08/30 02:49:00;;;;;;;32.05;4.20;;;;;;;;;;5010049;28;20080;-49
2022/08/30 02:51:27;;;;;;;24.63;4.07;;;;;;;;;;5014639;28;20029;-50
2022/08/30 02:53:54;;;;;;;21.27;4.07;;;;;;;;;;5014386;28;20022;-53
2022/08/30 02:56:21;;;;;;;20.55;3.83;;;;;;;;;;5014507;28;20037;-48
2022/08/30 02:58:48;;;;;;;17.67;3.58;;;;;;;;;;4988641;28;20030;-51
2022/08/30 03:01:17;;;;;;;21.63;3.65;;;;;;;;;;4991249;28;20038;-49
2022/08/30 03:03:45;;;;;;;17.08;3.28;;;;;;;;;;4994248;28;20099;-50
2022/08/30 03:06:13;;;;;;;17.70;3.20;;;;;;;;;;5013301;28;20053;-51
2022/08/30 03:08:40;;;;;;;21.50;3.88;;;;;;;;;;5008185;28;20042;-49
2022/08/30 03:11:07;;;;;;;17.17;3.47;;;;;;;;;;5011091;28;20022;-56
2022/08/30 03:13:34;;;;;;;18.30;3.83;;;;;;;;;;5014380;28;20030;-52
2022/08/30 03:16:01;;;;;;;21.70;3.30;;;;;;;;;;5011480;28;20116;-55
2022/08/30 03:18:28;;;;;;;24.13;3.70;;;;;;;;;;5011564;28;20030;-55
2022/08/30 03:20:55;;;;;;;17.05;3.35;;;;;;;;;;5011215;28;20451;-49
2022/08/30 03:23:23;;;;;;;18.02;3.22;;;;;;;;;;5011189;28;20033;-51
2022/08/30 03:25:50;;;;;;;19.05;3.30;;;;;;;;;;4996756;28;20076;-52
2022/08/30 03:28:17;;;;;;;17.10;3.53;;;;;;;;;;5014023;28;20559;-50
2022/08/30 03:30:44;;;;;;;21.63;3.75;;;;;;;;;;4994983;28;20109;-50
2022/08/30 03:33:11;;;;;;;20.65;3.28;;;;;;;;;;4995377;28;20026;-51
2022/08/30 03:35:39;;;;;;;18.52;3.63;;;;;;;;;;4988837;28;20464;-54
2022/08/30 03:38:06;;;;;;;19.13;3.35;;;;;;;;;;4985642;28;20540;-51
2022/08/30 03:40:34;;;;;;;12.73;2.72;;;;;;;;;;4993981;28;20019;-53
2022/08/30 03:43:01;;;;;;;15.20;3.47;;;;;;;;;;4995189;28;20056;-53
2022/08/30 03:45:28;;;;;;;13.63;2.75;;;;;;;;;;4995201;28;20042;-55
2022/08/30 03:47:55;;;;;;;16.30;3.10;;;;;;;;;;4995360;28;20099;-54
2022/08/30 03:50:23;;;;;;;15.85;3.10;;;;;;;;;;4995217;28;20400;-56
2022/08/30 03:52:50;;;;;;;13.98;3.08;;;;;;;;;;4995200;28;20033;-54
2022/08/30 03:55:17;;;;;;;15.73;2.60;;;;;;;;;;4994737;28;20039;-56
2022/08/30 03:57:44;;;;;;;15.35;2.83;;;;;;;;;;4995092;28;20396;-53
2022/08/30 04:00:11;;;;;;;13.90;2.22;;;;;;;;;;4995173;28;20061;-54
2022/08/30 04:02:38;;;;;;;23.23;2.30;;;;;;;;;;4995030;28;20050;-51
2022/08/30 04:05:06;;;;;;;13.15;2.65;;;;;;;;;;4994668;28;20058;-50
2022/08/30 04:07:33;;;;;;;9.48;2.00;;;;;;;;;;4995071;28;20018;-50
2022/08/30 04:10:00;;;;;;;11.05;2.30;;;;;;;;;;4994696;28;20396;-55
2022/08/30 04:12:27;;;;;;;15.88;2.30;;;;;;;;;;4994808;28;20034;-53
2022/08/30 04:14:54;;;;;;;14.10;2.75;;;;;;;;;;4994648;28;20034;-52
2022/08/30 04:17:21;;;;;;;12.50;2.50;;;;;;;;;;4994772;28;20033;-52
2022/08/30 04:19:48;;;;;;;16.23;2.70;;;;;;;;;;4994415;28;20107;-51
2022/08/30 04:22:15;;;;;;;11.35;2.40;;;;;;;;;;4994381;28;20037;-55
2022/08/30 04:24:42;;;;;;;13.18;2.40;;;;;;;;;;4994543;28;20497;-56
2022/08/30 04:27:09;;;;;;;17.00;3.08;;;;;;;;;;4994539;28;20022;-54
2022/08/30 04:29:37;;;;;;;9.45;2.20;;;;;;;;;;4994364;28;20018;-53
2022/08/30 04:32:04;;;;;;;9.82;2.20;;;;;;;;;;4994520;28;20081;-49
2022/08/30 04:34:31;;;;;;;11.30;2.50;;;;;;;;;;4994398;28;20027;-53
2022/08/30 04:36:58;;;;;;;10.82;2.42;;;;;;;;;;4994425;28;20030;-52
2022/08/30 04:39:25;;;;;;;11.35;2.55;;;;;;;;;;4994304;28;20038;-50
2022/08/30 04:41:52;;;;;;;10.45;2.00;;;;;;;;;;4994131;28;20604;-49
2022/08/30 04:44:20;;;;;;;13.25;2.17;;;;;;;;;;4993970;28;20078;-55
2022/08/30 04:46:47;;;;;;;11.65;2.22;;;;;;;;;;4994188;28;20050;-55
2022/08/30 04:49:15;;;;;;;11.05;2.65;;;;;;;;;;4993991;28;20081;-51
2022/08/30 04:51:42;;;;;;;12.88;2.08;;;;;;;;;;4993484;28;20037;-53
2022/08/30 04:54:09;;;;;;;15.50;2.13;;;;;;;;;;4993944;28;20035;-55
2022/08/30 04:56:36;;;;;;;10.05;2.38;;;;;;;;;;4994058;28;20149;-52
2022/08/30 04:59:03;;;;;;;11.57;2.15;;;;;;;;;;4993883;28;20053;-49
2022/08/30 05:01:31;;;;;;;11.50;2.10;;;;;;;;;;4993691;28;20038;-51
2022/08/30 05:03:59;;;;;;;7.65;1.73;;;;;;;;;;4993525;28;20100;-49
2022/08/30 05:06:29;;;;;;;10.77;1.90;;;;;;;;;;4993783;28;20153;-52
2022/08/30 05:08:59;;;;;;;10.60;2.22;;;;;;;;;;4993530;28;20066;-51
2022/08/30 05:11:26;;;;;;;9.27;2.20;;;;;;;;;;4993504;28;20143;-53
2022/08/30 05:13:53;;;;;;;8.55;1.80;;;;;;;;;;4993409;28;20037;-55
2022/08/30 05:16:20;;;;;;;8.90;2.13;;;;;;;;;;4993519;28;20029;-49
2022/08/30 05:18:48;;;;;;;7.57;1.70;;;;;;;;;;4993328;28;20026;-53
2022/08/30 05:21:17;;;;;;;9.15;1.60;;;;;;;;;;4993305;28;20567;-52
2022/08/30 05:23:45;;;;;;;8.55;1.67;;;;;;;;;;4993416;28;20022;-53
2022/08/30 05:26:13;;;;;;;5.97;1.60;;;;;;;;;;4993099;28;20374;-54
2022/08/30 05:28:41;;;;;;;8.82;2.08;;;;;;;;;;4993392;28;20027;-53
2022/08/30 05:31:16;;;;;;;9.82;1.73;;;;;;;;;;4993381;28;20435;-50
2022/08/30 05:33:43;;;;;;;7.00;1.58;;;;;;;;;;4993275;28;20064;-55
2022/08/30 05:36:11;;;;;;;8.50;1.90;;;;;;;;;;4993299;28;20034;-49
2022/08/30 05:38:38;;;;;;;9.25;2.28;;;;;;;;;;4993034;28;20034;-50
2022/08/30 05:41:06;;;;;;;8.38;1.70;;;;;;;;;;4993128;28;20591;-52
2022/08/30 05:43:33;;;;;;;9.82;1.70;;;;;;;;;;4993104;28;20035;-51
2022/08/30 05:46:05;;;;;;;7.82;1.88;;;;;;;;;;4993152;28;20092;-52
2022/08/30 05:48:32;;;;;;;10.80;1.63;;;;;;;;;;4993194;28;20548;-53
2022/08/30 05:51:05;;;;;;;5.43;1.48;;;;;;;;;;4993126;28;20033;-49
2022/08/30 05:53:32;;;;;;;6.75;1.92;;;;;;;;;;4992933;28;20104;-53
2022/08/30 05:56:00;;;;;;;8.43;1.45;;;;;;;;;;4993028;28;20030;-52
2022/08/30 05:58:27;;;;;;;9.18;1.50;;;;;;;;;;4993161;28;20030;-55
2022/08/30 06:00:54;;;;;;;8.57;1.60;;;;;;;;;;4991496;28;20053;-58
2022/08/30 06:03:21;;;;;;;6.95;1.48;;;;;;;;;;4993529;28;20121;-55
2022/08/30 06:05:48;;;;;;;10.25;1.60;;;;;;;;;;4997167;28;20030;-56
2022/08/30 06:08:15;;;;;;;5.57;1.60;;;;;;;;;;4997026;28;20210;-51
2022/08/30 06:10:42;;;;;;;5.93;1.65;;;;;;;;;;4997030;28;20022;-53
2022/08/30 06:13:09;;;;;;;7.35;2.03;;;;;;;;;;4996794;28;20027;-53
2022/08/30 06:15:37;;;;;;;7.65;1.67;;;;;;;;;;4996772;28;20037;-53
2022/08/30 06:18:04;;;;;;;7.10;1.45;;;;;;;;;;4996886;28;20042;-56
2022/08/30 06:20:31;;;;;;;7.28;1.67;;;;;;;;;;4996608;28;20508;-50
2022/08/30 06:22:58;;;;;;;7.30;1.67;;;;;;;;;;4996745;28;20027;-48
2022/08/30 06:25:25;;;;;;;3.20;1.17;;;;;;;;;;4996728;28;20022;-51
2022/08/30 06:27:52;;;;;;;8.40;1.30;;;;;;;;;;4996527;28;20023;-51
2022/08/30 06:30:19;;;;;;;5.72;1.70;;;;;;;;;;4996493;28;20038;-55
2022/08/30 06:32:46;;;;;;;11.13;1.77;;;;;;;;;;4996675;28;20045;-55
2022/08/30 06:35:13;;;;;;;5.32;1.38;;;;;;;;;;4996597;28;20077;-53
2022/08/30 06:37:41;;;;;;;4.40;1.40;;;;;;;;;;4996505;28;20027;-52
2022/08/30 06:40:09;;;;;;;5.90;1.10;;;;;;;;;;4996268;28;20034;-55
2022/08/30 06:42:36;;;;;;;6.13;1.50;;;;;;;;;;4996203;28;20049;-53
2022/08/30 06:45:03;;;;;;;6.22;1.35;;;;;;;;;;4996282;28;20599;-52
2022/08/30 06:47:30;;;;;;;3.38;1.10;;;;;;;;;;4996381;28;20535;-55
2022/08/30 06:49:57;;;;;;;4.25;1.33;;;;;;;;;;4996386;28;20062;-54
2022/08/30 06:52:24;;;;;;;6.65;1.42;;;;;;;;;;4995954;28;20034;-53
2022/08/30 06:54:52;;;;;;;4.05;1.40;;;;;;;;;;4996110;28;20074;-50
2022/08/30 06:57:19;;;;;;;5.63;1.50;;;;;;;;;;4996101;28;20793;-51
2022/08/30 06:59:46;;;;;;;4.22;1.30;;;;;;;;;;4996081;28;20076;-54
2022/08/30 07:02:13;;;;;;;3.97;1.00;;;;;;;;;;4995835;28;20489;-50
2022/08/30 07:04:40;;;;;;;4.75;1.38;;;;;;;;;;4995789;28;20038;-55
2022/08/30 07:07:10;;;;;;;6.10;1.25;;;;;;;;;;4996170;28;20380;-53
2022/08/30 07:09:42;;;;;;;5.07;1.15;;;;;;;;;;4996000;28;20035;-53
2022/08/30 07:12:12;;;;;;;5.70;1.30;;;;;;;;;;4995794;28;20125;-51
2022/08/30 07:14:40;;;;;;;5.95;1.50;;;;;;;;;;4995418;28;20031;-52
2022/08/30 07:19:53;;;;;;;4.07;1.10;;;;;;;;;;4995574;28;20128;-50
2022/08/30 07:22:20;;;;;;;3.58;1.30;;;;;;;;;;4995551;28;20042;-51
2022/08/30 07:24:47;;;;;;;4.57;1.20;;;;;;;;;;4995683;28;20058;-53
2022/08/30 07:27:14;;;;;;;4.45;1.48;;;;;;;;;;4995680;28;20023;-53
2022/08/30 07:29:41;;;;;;;3.72;1.17;;;;;;;;;;4995670;28;20101;-51
2022/08/30 07:32:09;;;;;;;5.47;1.30;;;;;;;;;;4995395;28;20026;-53
2022/08/30 07:34:36;;;;;;;7.03;1.50;;;;;;;;;;4995459;28;20038;-51
2022/08/30 07:37:03;;;;;;;5.32;1.20;;;;;;;;;;4995575;28;20093;-55
2022/08/30 07:39:30;;;;;;;3.85;1.15;;;;;;;;;;4995400;28;20038;-52
2022/08/30 07:41:57;;;;;;;3.13;0.93;;;;;;;;;;4995302;28;20042;-53
2022/08/30 07:44:24;;;;;;;3.85;1.30;;;;;;;;;;4995426;28;20050;-52
2022/08/30 07:46:51;;;;;;;3.78;1.10;;;;;;;;;;4995239;28;20034;-53
2022/08/30 07:49:18;;;;;;;3.65;1.13;;;;;;;;;;4995468;28;20022;-51
2022/08/30 07:51:46;;;;;;;4.72;1.02;;;;;;;;;;4995194;28;20042;-53
2022/08/30 07:54:13;;;;;;;4.15;1.10;;;;;;;;;;4995027;28;20037;-49
2022/08/30 07:56:40;;;;;;;2.88;1.05;;;;;;;;;;4995156;28;20034;-51
2022/08/30 07:59:07;;;;;;;6.38;1.20;;;;;;;;;;4995241;28;20026;-51
2022/08/30 08:01:34;;;;;;;5.25;1.27;;;;;;;;;;4995095;28;20066;-50
2022/08/30 08:04:01;;;;;;;3.47;0.90;;;;;;;;;;4994996;28;20038;-53
2022/08/30 08:06:28;;;;;;;4.82;1.40;;;;;;;;;;4995002;28;20488;-54
2022/08/30 08:08:56;;;;;;;3.63;1.20;;;;;;;;;;4994888;28;20125;-54
2022/08/30 08:11:25;;;;;;;6.90;1.30;;;;;;;;;;4994713;28;20392;-53
2022/08/30 08:13:52;;;;;;;4.43;1.13;;;;;;;;;;4994818;28;20057;-50
2022/08/30 08:16:20;;;;;;;2.22;0.98;;;;;;;;;;4994910;28;20042;-52
2022/08/30 08:18:47;;;;;;;7.20;1.38;;;;;;;;;;4994484;28;20031;-56
2022/08/30 08:21:14;;;;;;;5.72;1.20;;;;;;;;;;4994153;28;20042;-50
2022/08/30 08:23:41;;;;;;;3.40;1.20;;;;;;;;;;4994680;28;20085;-53
2022/08/30 08:26:08;;;;;;;3.13;1.20;;;;;;;;;;4994062;28;20050;-52
2022/08/30 08:28:35;;;;;;;3.50;1.20;;;;;;;;;;4994489;28;20026;-54
2022/08/30 08:31:03;;;;;;;3.22;1.33;;;;;;;;;;4994663;28;20026;-54
2022/08/30 08:33:30;;;;;;;4.55;1.30;;;;;;;;;;4994526;28;20034;-55
2022/08/30 08:35:57;;;;;;;5.72;1.50;;;;;;;;;;4994436;28;20574;-53
2022/08/30 08:38:24;;;;;;;5.50;1.23;;;;;;;;;;4994482;28;20545;-52
2022/08/30 08:40:54;;;;;;;3.58;1.20;;;;;;;;;;4994386;28;20042;-52
2022/08/30 08:43:23;;;;;;;5.55;1.85;;;;;;;;;;4994184;28;20034;-55
2022/08/30 08:46:08;;;;;;;3.75;1.20;;;;;;;;;;4994360;28;20064;-49
2022/08/30 08:48:48;;;;;;;3.65;1.08;;;;;;;;;;4994169;28;20033;-52
2022/08/30 08:54:08;;;;;;;6.72;1.27;;;;;;;;;;4994313;28;20045;-52
2022/08/30 08:56:36;;;;;;;;;;;;;;;;;;4994449;28;20026;-51
2022/08/30 08:59:05;;;;;;;4.53;1.20;;;;;;;;;;4993918;28;20355;-56
2022/08/30 09:01:32;;;;;;;6.90;1.60;;;;;;;;;;4993878;28;20112;-53
2022/08/30 09:04:01;;;;;;;4.43;1.05;;;;;;;;;;4993739;28;20121;-52
2022/08/30 09:06:31;;;;;;;3.72;1.08;;;;;;;;;;4976695;28;20089;-53
2022/08/30 09:08:58;;;;;;;6.30;1.35;;;;;;;;;;4993839;28;20033;-54
2022/08/30 09:11:31;;;;;;;4.35;1.20;;;;;;;;;;4993827;28;20061;-54
2022/08/30 09:13:58;;;;;;;6.60;1.17;;;;;;;;;;4993652;28;20089;-53
2022/08/30 09:16:43;;;;;;;3.72;1.17;;;;;;;;;;4993782;28;20113;-51
2022/08/30 09:19:10;;;;;;;5.00;1.45;;;;;;;;;;4993792;28;20019;-54
2022/08/30 09:21:38;;;;;;;2.40;1.02;;;;;;;;;;4993393;28;20053;-52
2022/08/30 09:24:09;;;;;;;6.90;1.25;;;;;;;;;;4993458;28;20041;-53
2022/08/30 09:26:37;;;;;;;3.45;1.27;;;;;;;;;;4993531;28;20092;-54
2022/08/30 09:29:05;;;;;;;3.40;1.20;;;;;;;;;;4993484;28;20480;-51
2022/08/30 09:31:36;;;;;;;4.00;1.17;;;;;;;;;;4993399;28;20042;-53
2022/08/30 09:34:05;;;;;;;6.65;1.45;;;;;;;;;;4993434;28;20047;-54
2022/08/30 09:36:41;;;;;;;7.18;1.20;;;;;;;;;;4993379;28;20065;-56
2022/08/30 09:39:29;;;;;;;4.30;1.30;;;;;;;;;;4993420;28;20092;-56
2022/08/30 09:42:09;;;;;;;5.22;1.48;;;;;;;;;;4993237;28;20608;-53
2022/08/30 09:44:38;;;;;;;4.30;1.40;;;;;;;;;;4993244;28;20507;-52
2022/08/30 09:47:05;;;;;;;3.35;1.30;;;;;;;;;;4993293;28;20034;-52
2022/08/30 09:49:35;;;;;;;3.65;1.10;;;;;;;;;;4993269;28;20113;-55
2022/08/30 09:52:09;;;;;;;3.30;1.33;;;;;;;;;;4993498;28;20034;-55
2022/08/30 09:54:42;;;;;;;3.38;1.23;;;;;;;;;;4993331;28;20064;-51
2022/08/30 09:57:12;;;;;;;5.40;1.23;;;;;;;;;;4993273;28;20031;-50
2022/08/30 10:00:02;;;;;;;5.10;1.48;;;;;;;;;;4993233;28;20084;-53
2022/08/30 10:02:41;;;;;;;3.60;1.50;;;;;;;;;;4992950;28;20038;-53
2022/08/30 10:05:22;;;;;;;3.20;1.25;;;;;;;;;;4993144;28;20130;-52
2022/08/30 10:08:12;;;;;;;5.85;1.45;;;;;;;;;;4992937;28;20113;-52
2022/08/30 10:10:52;;;;;;;5.07;1.55;;;;;;;;;;4957101;28;20030;-51
2022/08/30 10:13:21;;;;;;;4.93;1.50;;;;;;;;;;4992766;28;20034;-54
2022/08/30 10:15:48;;;;;;;5.82;1.40;;;;;;;;;;4992799;28;20034;-49
2022/08/30 10:18:33;;;;;;;6.22;1.50;;;;;;;;;;4993131;28;20037;-51
2022/08/30 10:21:12;;;;;;;5.82;1.50;;;;;;;;;;4992803;28;20053;-52
2022/08/30 10:23:43;;;;;;;5.30;1.38;;;;;;;;;;4993050;28;20361;-53
2022/08/30 10:26:10;;;;;;;5.95;1.52;;;;;;;;;;4992934;28;20580;-51
2022/08/30 10:28:40;;;;;;;8.73;1.48;;;;;;;;;;4992822;28;20030;-55
2022/08/30 10:31:11;;;;;;;5.85;1.67;;;;;;;;;;4992719;28;20495;-51
2022/08/30 10:33:43;;;;;;;5.93;1.55;;;;;;;;;;4992798;28;20038;-53
2022/08/30 10:36:11;;;;;;;6.05;1.75;;;;;;;;;;4992826;28;20035;-50
2022/08/30 10:38:39;;;;;;;7.43;1.30;;;;;;;;;;4992849;28;20473;-51
2022/08/30 10:41:12;;;;;;;6.47;1.83;;;;;;;;;;4975088;28;20101;-54
2022/08/30 10:43:45;;;;;;;10.13;1.52;;;;;;;;;;4992691;28;20026;-51
2022/08/30 10:46:19;;;;;;;5.18;1.65;;;;;;;;;;4992743;28;20109;-51
2022/08/30 10:48:47;;;;;;;4.82;1.60;;;;;;;;;;4993748;28;20041;-50
2022/08/30 10:51:39;;;;;;;6.78;1.38;;;;;;;;;;4996197;28;20563;-53
2022/08/30 10:54:21;;;;;;;5.70;1.60;;;;;;;;;;4996228;28;20562;-49
2022/08/30 10:56:53;;;;;;;8.40;2.07;;;;;;;;;;4996393;28;20031;-54
2022/08/30 10:59:20;;;;;;;10.52;2.05;;;;;;;;;;4996313;28;20034;-50
2022/08/30 11:01:48;;;;;;;6.07;2.05;;;;;;;;;;4987817;28;20034;-50
2022/08/30 11:04:27;;;;;;;4.13;1.55;;;;;;;;;;4976648;28;20035;-52
2022/08/30 11:07:00;;;;;;;9.48;1.92;;;;;;;;;;4976683;28;20035;-51
2022/08/30 11:09:49;;;;;;;5.57;1.75;;;;;;;;;;4976579;28;20031;-53
2022/08/30 11:12:17;;;;;;;7.45;2.13;;;;;;;;;;4976667;28;20039;-52
2022/08/30 11:14:45;;;;;;;10.63;2.10;;;;;;;;;;4976561;28;20139;-51
2022/08/30 11:17:41;;;;;;;7.18;1.90;;;;;;;;;;4976551;28;20035;-52
2022/08/30 11:20:21;;;;;;;8.18;2.20;;;;;;;;;;4963977;28;20046;-51
2022/08/30 11:23:06;;;;;;;9.23;1.88;;;;;;;;;;4976173;28;20072;-52
2022/08/30 11:25:51;;;;;;;9.43;1.85;;;;;;;;;;4976230;28;20038;-52
2022/08/30 11:28:37;;;;;;;7.85;1.90;;;;;;;;;;4976264;28;20027;-53
2022/08/30 11:31:08;;;;;;;11.05;1.98;;;;;;;;;;4976156;28;20493;-54
2022/08/30 11:33:41;;;;;;;12.38;2.40;;;;;;;;;;4976154;28;20389;-52
2022/08/30 11:36:08;;;;;;;14.23;2.35;;;;;;;;;;4976237;28;20023;-50
2022/08/30 11:38:35;;;;;;;6.95;2.50;;;;;;;;;;4977006;28;20093;-53
2022/08/30 11:41:10;;;;;;;13.63;2.22;;;;;;;;;;4991988;28;20133;-50
2022/08/30 11:43:38;;;;;;;11.38;2.30;;;;;;;;;;4995484;28;20607;-54
2022/08/30 11:46:24;;;;;;;9.52;2.20;;;;;;;;;;4995392;28;20181;-52
2022/08/30 11:48:53;;;;;;;11.13;2.05;;;;;;;;;;4995283;28;20038;-50
2022/08/30 11:51:20;;;;;;;16.95;2.88;;;;;;;;;;4995228;28;20045;-56
2022/08/30 11:53:48;;;;;;;9.77;2.38;;;;;;;;;;4989383;28;20118;-54
2022/08/30 11:56:33;;;;;;;9.65;2.42;;;;;;;;;;4985853;28;20034;-57
2022/08/30 11:59:18;;;;;;;11.57;2.58;;;;;;;;;;4985235;28;20477;-52
2022/08/30 12:01:45;;;;;;;10.38;2.55;;;;;;;;;;4980757;28;20031;-54
2022/08/30 12:04:23;;;;;;;12.25;2.50;;;;;;;;;;4978869;28;20034;-53
2022/08/30 12:06:55;;;;;;;16.30;2.95;;;;;;;;;;4988418;28;20031;-49
2022/08/30 12:09:22;;;;;;;;;;;;;;;;;;4985438;28;20034;-51
2022/08/30 12:11:58;;;;;;;17.95;3.50;;;;;;;;;;4977973;28;19910;-53
2022/08/30 12:14:53;;;;;;;18.15;3.30;;;;;;;;;;4987468;28;20031;-51
2022/08/30 12:20:21;;;;;;;14.40;3.08;;;;;;;;;;4994766;28;20096;-53
2022/08/30 12:22:48;;;;;;;13.07;2.78;;;;;;;;;;4992560;28;20400;-52
2022/08/30 12:25:23;;;;;;;18.38;3.60;;;;;;;;;;4977536;28;20046;-53
2022/08/30 12:27:50;;;;;;;16.38;2.97;;;;;;;;;;4985238;28;20037;-49
2022/08/30 12:30:25;;;;;;;15.07;3.13;;;;;;;;;;4975161;28;20033;-53
2022/08/30 12:32:53;;;;;;;19.25;3.28;;;;;;;;;;4974926;28;20045;-53
2022/08/30 12:35:23;;;;;;;14.93;3.72;;;;;;;;;;4975049;28;20019;-53
2022/08/30 12:37:58;;;;;;;20.08;3.60;;;;;;;;;;4974972;28;20038;-54
2022/08/30 12:40:25;;;;;;;19.05;3.15;;;;;;;;;;4978901;28;20086;-52
2022/08/30 12:43:03;;;;;;;18.63;4.10;;;;;;;;;;4977986;28;20042;-52
2022/08/30 12:45:38;;;;;;;20.48;3.17;;;;;;;;;;4974768;28;20037;-53
2022/08/30 12:48:10;;;;;;;20.98;3.50;;;;;;;;;;4974802;28;20081;-50
2022/08/30 12:50:43;;;;;;;22.10;3.30;;;;;;;;;;4974617;28;20034;-56
2022/08/30 12:53:12;;;;;;;18.63;3.28;;;;;;;;;;4985895;28;20702;-54
2022/08/30 12:55:58;;;;;;;26.00;3.67;;;;;;;;;;4983428;28;20389;-53
2022/08/30 12:58:42;;;;;;;21.80;3.28;;;;;;;;;;4984122;28;20125;-54
2022/08/30 13:01:27;;;;;;;22.00;3.92;;;;;;;;;;4985449;28;20557;-52
2022/08/30 13:03:55;;;;;;;19.95;4.13;;;;;;;;;;4984469;28;20037;-51
2022/08/30 13:06:56;;;;;;;32.15;3.97;;;;;;;;;;4982058;28;20061;-51
2022/08/30 13:09:30;;;;;;;20.60;3.83;;;;;;;;;;4952288;28;20061;-46
2022/08/30 13:11:57;;;;;;;28.30;4.32;;;;;;;;;;4982539;28;20105;-53
2022/08/30 13:14:24;;;;;;;27.52;4.10;;;;;;;;;;4984733;28;20074;-52
2022/08/30 13:17:04;;;;;;;30.73;4.68;;;;;;;;;;4988154;28;20034;-51
2022/08/30 13:19:36;;;;;;;31.02;5.30;;;;;;;;;;4993401;28;20022;-50
2022/08/30 13:22:04;;;;;;;31.38;4.57;;;;;;;;;;4993689;28;20038;-47
2022/08/30 13:24:31;;;;;;;31.30;5.00;;;;;;;;;;4987657;28;20046;-49
2022/08/30 13:27:10;;;;;;;33.50;5.45;;;;;;;;;;4993444;28;20046;-54
2022/08/30 13:29:39;;;;;;;39.78;5.85;;;;;;;;;;4993630;28;20374;-55
2022/08/30 13:32:06;;;;;;;37.42;5.13;;;;;;;;;;4993508;28;20117;-51
2022/08/30 13:34:34;;;;;;;32.65;5.25;;;;;;;;;;4989536;28;20109;-47
2022/08/30 13:37:02;;;;;;;40.95;5.32;;;;;;;;;;4973803;28;20466;-48
2022/08/30 13:39:29;;;;;;;39.63;5.18;;;;;;;;;;4973944;28;20624;-47
2022/08/30 13:41:56;;;;;;;45.83;5.97;;;;;;;;;;4973893;28;20034;-52
2022/08/30 13:44:23;;;;;;;37.53;5.28;;;;;;;;;;4973708;28;20031;-49
2022/08/30 13:46:52;;;;;;;37.47;5.30;;;;;;;;;;4973888;28;20114;-51
2022/08/30 13:49:21;;;;;;;31.88;5.47;;;;;;;;;;4980800;28;20110;-48
2022/08/30 13:51:52;;;;;;;40.45;5.60;;;;;;;;;;4990473;28;20029;-47
2022/08/30 13:54:22;;;;;;;31.30;5.25;;;;;;;;;;4992951;28;20049;-46
2022/08/30 13:56:50;;;;;;;44.88;6.13;;;;;;;;;;4975280;28;20042;-48
2022/08/30 13:59:18;;;;;;;32.67;4.80;;;;;;;;;;4993179;28;20031;-48
2022/08/30 14:01:45;;;;;;;39.03;5.50;;;;;;;;;;4991026;28;20105;-48
2022/08/30 14:04:12;;;;;;;39.30;4.95;;;;;;;;;;4973665;28;20023;-52
2022/08/30 14:06:40;;;;;;;30.48;5.30;;;;;;;;;;4976789;28;20023;-50
2022/08/30 14:09:09;;;;;;;30.67;4.57;;;;;;;;;;4984524;28;20050;-47
2022/08/30 14:11:36;;;;;;;29.20;4.65;;;;;;;;;;4981522;28;20035;-53
2022/08/30 14:14:06;;;;;;;42.30;5.63;;;;;;;;;;4991033;28;20062;-49
2022/08/30 14:16:33;;;;;;;40.42;5.20;;;;;;;;;;4993013;28;20098;-49
2022/08/30 14:19:00;;;;;;;42.47;5.13;;;;;;;;;;4990216;28;20432;-48
2022/08/30 14:21:28;;;;;;;40.38;6.07;;;;;;;;;;4973332;28;20043;-46
2022/08/30 14:23:56;;;;;;;35.33;5.45;;;;;;;;;;4974526;28;20034;-46
2022/08/30 14:26:25;;;;;;;46.53;5.30;;;;;;;;;;4977537;28;20027;-49
2022/08/30 14:28:52;;;;;;;36.90;5.95;;;;;;;;;;4979901;28;20026;-50
2022/08/30 14:31:19;;;;;;;41.25;5.95;;;;;;;;;;4975256;28;20504;-47
2022/08/30 14:33:46;;;;;;;44.75;6.05;;;;;;;;;;4977172;28;20094;-49
2022/08/30 14:36:13;;;;;;;41.35;5.45;;;;;;;;;;4977083;28;20039;-50
2022/08/30 14:38:40;;;;;;;62.10;6.60;;;;;;;;;;4979315;28;20109;-48
2022/08/30 14:41:08;;;;;;;42.13;5.95;;;;;;;;;;4983398;28;20045;-48
2022/08/30 14:43:36;;;;;;;44.55;6.15;;;;;;;;;;4989273;28;20370;-47
2022/08/30 14:46:03;;;;;;;42.20;6.55;;;;;;;;;;4995455;28;20461;-47
2022/08/30 14:48:30;;;;;;;46.85;6.88;;;;;;;;;;4976991;28;20046;-48
2022/08/30 14:50:57;;;;;;;44.70;6.68;;;;;;;;;;4976865;28;20046;-48
2022/08/30 14:53:24;;;;;;;51.08;6.28;;;;;;;;;;4976715;28;20027;-47
2022/08/30 14:55:51;;;;;;;53.90;7.15;;;;;;;;;;4959658;28;20031;-49
2022/08/30 14:58:18;;;;;;;44.40;6.65;;;;;;;;;;4976857;28;20027;-47